createdAt,value
2024-05-09T00:01:13.612Z,8.51
2024-05-09T00:03:47.546Z,8.48
2024-05-09T00:06:19.787Z,8.46
2024-05-09T00:08:50.960Z,8.44
2024-05-09T00:11:22.882Z,8.45
2024-05-09T00:13:54.399Z,8.44
2024-05-09T00:16:25.627Z,8.43
2024-05-09T00:18:56.876Z,8.42
2024-05-09T00:21:28.191Z,8.40
2024-05-09T00:23:59.367Z,8.37
2024-05-09T00:26:30.558Z,8.35
2024-05-09T00:29:02.138Z,8.30
2024-05-09T00:31:33.279Z,8.32
2024-05-09T00:34:04.579Z,8.31
2024-05-09T00:36:35.741Z,8.28
2024-05-09T00:39:07.061Z,8.25
2024-05-09T00:41:38.341Z,8.23
2024-05-09T00:44:09.624Z,8.19
2024-05-09T00:46:41.011Z,8.23
2024-05-09T00:49:13.417Z,8.21
2024-05-09T00:51:49.016Z,8.17
2024-05-09T00:54:21.194Z,8.14
2024-05-09T00:56:53.824Z,8.09
2024-05-09T00:59:25.946Z,8.07
2024-05-09T01:01:57.335Z,8.07
2024-05-09T01:04:29.120Z,8.05
2024-05-09T01:07:00.471Z,8.02
2024-05-09T01:09:32.234Z,8.01
2024-05-09T01:12:04.078Z,7.97
2024-05-09T01:14:36.897Z,7.96
2024-05-09T01:17:08.586Z,7.97
2024-05-09T01:19:42.310Z,7.96
2024-05-09T01:22:18.736Z,7.95
2024-05-09T01:24:51.770Z,7.93
2024-05-09T01:27:23.448Z,7.88
2024-05-09T01:29:55.802Z,7.85
2024-05-09T01:32:33.460Z,7.84
2024-05-09T01:35:05.589Z,7.82
2024-05-09T01:37:41.441Z,7.81
2024-05-09T01:40:22.024Z,7.81
2024-05-09T01:42:56.234Z,7.78
2024-05-09T01:45:27.671Z,7.77
2024-05-09T01:47:58.518Z,7.75
2024-05-09T01:50:38.148Z,7.77
2024-05-09T01:53:14.758Z,7.74
2024-05-09T01:55:48.266Z,7.74
2024-05-09T01:58:20.441Z,7.71
2024-05-09T02:00:53.522Z,7.67
2024-05-09T02:03:24.927Z,7.65
2024-05-09T02:05:56.808Z,7.64
2024-05-09T02:08:31.886Z,7.63
2024-05-09T02:11:03.606Z,7.59
2024-05-09T02:13:36.322Z,7.55
2024-05-09T02:16:17.392Z,7.53
2024-05-09T02:18:52.935Z,7.50
2024-05-09T02:21:27.909Z,7.45
2024-05-09T02:23:59.684Z,7.45
2024-05-09T02:26:31.345Z,7.41
2024-05-09T02:29:02.588Z,7.39
2024-05-09T02:31:38.167Z,7.35
2024-05-09T02:34:11.167Z,7.35
2024-05-09T02:36:45.075Z,7.35
2024-05-09T02:39:22.251Z,7.36
2024-05-09T02:42:01.364Z,7.33
2024-05-09T02:44:36.435Z,7.31
2024-05-09T02:47:14.151Z,7.30
2024-05-09T02:49:48.953Z,7.29
2024-05-09T02:52:24.767Z,7.28
2024-05-09T02:55:01.177Z,7.26
2024-05-09T02:57:33.646Z,7.26
2024-05-09T03:00:18.426Z,7.17
2024-05-09T03:02:55.293Z,7.13
2024-05-09T03:05:31.120Z,7.10
2024-05-09T03:08:02.430Z,7.11
2024-05-09T03:10:39.243Z,7.11
2024-05-09T03:13:15.832Z,7.09
2024-05-09T03:15:56.757Z,7.09
2024-05-09T03:18:32.598Z,7.04
2024-05-09T03:21:07.622Z,6.98
2024-05-09T03:23:41.307Z,6.93
2024-05-09T03:26:16.306Z,6.98
2024-05-09T03:28:47.785Z,6.98
2024-05-09T03:31:21.009Z,6.92
2024-05-09T03:33:56.155Z,6.90
2024-05-09T03:36:31.419Z,6.90
2024-05-09T03:39:03.613Z,6.88
2024-05-09T03:41:37.308Z,6.89
2024-05-09T03:44:08.547Z,6.91
2024-05-09T03:46:41.144Z,6.89
2024-05-09T03:49:12.463Z,6.87
2024-05-09T03:51:43.740Z,6.88
2024-05-09T03:54:17.420Z,6.87
2024-05-09T03:56:54.733Z,6.83
2024-05-09T03:59:29.696Z,6.83
2024-05-09T04:02:01.044Z,6.82
2024-05-09T04:04:37.508Z,6.80
2024-05-09T04:07:09.310Z,6.79
2024-05-09T04:09:44.300Z,6.83
2024-05-09T04:12:20.345Z,6.87
2024-05-09T04:14:54.939Z,6.89
2024-05-09T04:17:26.324Z,6.85
2024-05-09T04:20:01.352Z,6.83
2024-05-09T04:22:37.635Z,6.84
2024-05-09T04:25:13.817Z,6.85
2024-05-09T04:27:47.320Z,6.90
2024-05-09T04:30:26.237Z,6.94
2024-05-09T04:33:11.058Z,6.96
2024-05-09T04:35:52.039Z,6.97
2024-05-09T04:38:30.499Z,7.00
2024-05-09T04:41:04.449Z,7.07
2024-05-09T04:43:36.399Z,7.11
2024-05-09T04:46:09.671Z,7.16
2024-05-09T04:48:45.630Z,7.20
2024-05-09T04:51:19.389Z,7.26
2024-05-09T04:53:53.038Z,7.31
2024-05-09T04:56:29.414Z,7.38
2024-05-09T04:59:06.637Z,7.40
2024-05-09T05:01:45.208Z,7.44
2024-05-09T05:04:23.527Z,7.47
2024-05-09T05:06:55.262Z,7.50
2024-05-09T05:09:29.152Z,7.52
2024-05-09T05:12:24.448Z,7.60
2024-05-09T05:15:00.676Z,7.67
2024-05-09T05:17:36.677Z,7.71
2024-05-09T05:20:15.088Z,7.76
2024-05-09T05:22:47.713Z,7.82
2024-05-09T05:25:23.899Z,7.87
2024-05-09T05:27:57.264Z,7.94
2024-05-09T05:30:32.905Z,8.00
2024-05-09T05:33:07.092Z,8.08
2024-05-09T05:35:38.551Z,8.17
2024-05-09T05:38:11.094Z,8.28
2024-05-09T05:40:42.392Z,8.37
2024-05-09T05:43:19.249Z,8.46
2024-05-09T05:45:50.291Z,8.54
2024-05-09T05:48:25.800Z,8.64
2024-05-09T05:50:59.002Z,8.77
2024-05-09T05:53:31.112Z,8.91
2024-05-09T05:56:02.379Z,9.04
2024-05-09T05:58:33.680Z,9.21
2024-05-09T06:01:06.888Z,9.44
2024-05-09T06:03:39.251Z,9.67
2024-05-09T06:06:10.739Z,9.94
2024-05-09T06:08:42.174Z,10.26
2024-05-09T06:11:13.485Z,10.54
2024-05-09T06:13:45.828Z,10.82
2024-05-09T06:16:17.673Z,11.09
2024-05-09T06:18:48.904Z,11.35
2024-05-09T06:21:20.060Z,11.67
2024-05-09T06:23:53.185Z,11.96
2024-05-09T06:26:24.416Z,12.25
2024-05-09T06:28:55.604Z,12.53
2024-05-09T06:31:27.822Z,12.81
2024-05-09T06:33:59.002Z,13.12
2024-05-09T06:36:30.161Z,13.64
2024-05-09T06:39:01.191Z,14.42
2024-05-09T06:41:32.447Z,15.28
2024-05-09T06:44:03.752Z,16.04
2024-05-09T06:46:37.104Z,16.86
2024-05-09T06:49:08.982Z,16.97
2024-05-09T06:51:40.628Z,16.31
2024-05-09T06:54:11.935Z,15.75
2024-05-09T06:56:43.120Z,15.40
2024-05-09T06:59:14.460Z,15.18
2024-05-09T07:01:45.588Z,15.01
2024-05-09T07:04:16.889Z,14.94
2024-05-09T07:06:48.079Z,14.93
2024-05-09T07:09:19.183Z,14.90
2024-05-09T07:11:50.347Z,14.87
2024-05-09T07:14:21.613Z,14.84
2024-05-09T07:16:52.758Z,14.83
2024-05-09T07:19:24.525Z,14.88
2024-05-09T07:21:56.138Z,14.94
2024-05-09T07:24:27.536Z,14.97
2024-05-09T07:26:58.687Z,15.04
2024-05-09T07:29:29.910Z,15.15
2024-05-09T07:32:01.078Z,15.20
2024-05-09T07:34:32.337Z,15.24
2024-05-09T07:37:05.581Z,15.33
2024-05-09T07:39:36.966Z,15.39
2024-05-09T07:42:08.736Z,15.49
2024-05-09T07:44:38.361Z,15.61
2024-05-09T07:48:14.777Z,15.68
2024-05-09T07:51:47.626Z,15.83
2024-05-09T07:53:35.370Z,16.01
2024-05-09T07:55:43.000Z,16.15
2024-05-09T07:58:14.212Z,16.29
2024-05-09T08:00:48.013Z,16.42
2024-05-09T08:03:19.547Z,16.55
2024-05-09T08:05:51.645Z,16.65
2024-05-09T08:08:23.109Z,16.78
2024-05-09T08:10:54.288Z,16.91
2024-05-09T08:13:25.372Z,17.00
2024-05-09T08:15:56.498Z,17.13
2024-05-09T08:18:27.758Z,17.26
2024-05-09T08:20:59.207Z,17.39
2024-05-09T08:23:30.259Z,17.56
2024-05-09T08:26:01.587Z,17.69
2024-05-09T08:28:32.730Z,17.79
2024-05-09T08:31:06.878Z,17.89
2024-05-09T08:33:44.051Z,17.95
2024-05-09T08:36:16.132Z,18.04
2024-05-09T08:38:47.557Z,18.16
2024-05-09T08:41:18.884Z,18.20
2024-05-09T08:43:50.093Z,18.37
2024-05-09T08:46:21.533Z,18.49
2024-05-09T08:48:53.058Z,18.55
2024-05-09T08:51:24.421Z,18.62
2024-05-09T08:53:55.621Z,18.75
2024-05-09T08:56:36.024Z,18.87
2024-05-09T08:59:13.551Z,18.96
2024-05-09T09:01:47.156Z,18.92
2024-05-09T09:04:19.469Z,18.95
2024-05-09T09:06:56.336Z,19.03
2024-05-09T09:09:29.797Z,19.11
2024-05-09T09:12:01.364Z,19.23
2024-05-09T09:14:51.352Z,19.41
2024-05-09T09:17:22.967Z,19.58
2024-05-09T09:19:56.351Z,19.60
2024-05-09T09:22:35.446Z,19.49
2024-05-09T09:25:08.027Z,19.58
2024-05-09T09:27:40.152Z,19.63
2024-05-09T09:30:27.407Z,19.80
2024-05-09T09:33:04.869Z,19.98
2024-05-09T09:35:36.845Z,19.99
2024-05-09T09:38:10.600Z,19.95
2024-05-09T09:40:49.513Z,20.04
2024-05-09T09:43:23.313Z,20.04
2024-05-09T09:46:00.264Z,20.08
2024-05-09T09:48:33.237Z,20.25
2024-05-09T09:51:05.764Z,20.24
2024-05-09T09:53:38.082Z,20.16
2024-05-09T09:56:10.968Z,20.23
2024-05-09T09:58:42.993Z,20.40
2024-05-09T10:01:17.920Z,20.45
2024-05-09T10:04:10.836Z,20.54
2024-05-09T10:06:52.410Z,20.53
2024-05-09T10:09:24.072Z,20.71
2024-05-09T10:12:09.574Z,20.68
2024-05-09T10:14:52.632Z,20.83
2024-05-09T10:17:24.063Z,20.96
2024-05-09T10:20:11.829Z,21.07
2024-05-09T10:22:52.718Z,21.22
2024-05-09T10:25:24.968Z,21.25
2024-05-09T10:27:58.603Z,21.34
2024-05-09T10:30:35.751Z,21.39
2024-05-09T10:33:12.068Z,21.37
2024-05-09T10:35:53.216Z,21.65
2024-05-09T10:38:27.696Z,21.69
2024-05-09T10:41:00.726Z,21.71
2024-05-09T10:43:34.122Z,22.14
2024-05-09T10:46:06.223Z,22.34
2024-05-09T10:48:38.586Z,22.35
2024-05-09T10:51:10.374Z,22.13
2024-05-09T10:53:45.193Z,22.24
2024-05-09T10:56:17.384Z,22.15
2024-05-09T10:58:51.993Z,22.39
2024-05-09T11:01:24.254Z,22.45
2024-05-09T11:03:54.421Z,22.55
2024-05-09T11:06:24.430Z,22.54
2024-05-09T11:09:02.882Z,22.41
2024-05-09T11:11:36.027Z,22.28
2024-05-09T11:14:17.218Z,22.02
2024-05-09T11:16:58.762Z,21.67
2024-05-09T11:19:33.602Z,21.42
2024-05-09T11:22:05.775Z,21.17
2024-05-09T11:24:37.682Z,20.99
2024-05-09T11:27:08.898Z,20.68
2024-05-09T11:29:41.140Z,20.35
2024-05-09T11:32:14.700Z,20.25
2024-05-09T11:34:45.909Z,20.14
2024-05-09T11:37:17.617Z,20.09
2024-05-09T11:39:49.307Z,20.22
2024-05-09T11:42:22.384Z,20.35
2024-05-09T11:44:55.824Z,20.49
2024-05-09T11:47:27.560Z,20.66
2024-05-09T11:49:58.866Z,21.01
2024-05-09T11:52:30.032Z,21.41
2024-05-09T11:55:02.498Z,21.79
2024-05-09T11:57:33.942Z,22.26
2024-05-09T12:00:09.510Z,22.61
2024-05-09T12:02:43.096Z,22.81
2024-05-09T12:05:14.578Z,22.87
2024-05-09T12:07:45.820Z,22.36
2024-05-09T12:10:22.218Z,22.05
2024-05-09T12:12:59.315Z,21.98
2024-05-09T12:15:30.780Z,22.00
2024-05-09T12:18:03.901Z,22.12
2024-05-09T12:20:38.792Z,22.08
2024-05-09T12:23:11.449Z,21.96
2024-05-09T12:25:42.770Z,21.79
2024-05-09T12:28:14.002Z,21.66
2024-05-09T12:30:45.282Z,21.78
2024-05-09T12:33:17.098Z,21.81
2024-05-09T12:35:50.831Z,21.82
2024-05-09T12:38:22.329Z,21.86
2024-05-09T12:40:54.495Z,21.85
2024-05-09T12:43:27.980Z,21.78
2024-05-09T12:45:58.158Z,21.74
2024-05-09T12:48:29.516Z,21.69
2024-05-09T12:51:00.969Z,21.73
2024-05-09T12:53:32.210Z,21.91
2024-05-09T12:56:03.857Z,21.98
2024-05-09T12:58:37.170Z,21.91
2024-05-09T13:01:10.569Z,21.72
2024-05-09T13:03:42.738Z,21.51
2024-05-09T13:06:14.709Z,21.23
2024-05-09T13:08:46.018Z,21.09
2024-05-09T13:11:17.869Z,20.99
2024-05-09T13:13:49.314Z,20.90
2024-05-09T13:16:20.621Z,20.91
2024-05-09T13:18:51.925Z,21.06
2024-05-09T13:21:23.354Z,21.25
2024-05-09T13:23:56.224Z,21.45
2024-05-09T13:26:28.492Z,21.36
2024-05-09T13:29:00.337Z,21.47
2024-05-09T13:31:32.463Z,21.43
2024-05-09T13:34:04.059Z,21.39
2024-05-09T13:36:35.979Z,21.43
2024-05-09T13:39:07.535Z,21.37
2024-05-09T13:41:38.626Z,21.33
2024-05-09T13:44:11.648Z,21.29
2024-05-09T13:46:48.938Z,21.12
2024-05-09T13:53:41.744Z,21.25
2024-05-09T13:56:15.924Z,21.33
2024-05-09T13:58:51.361Z,21.30
2024-05-09T14:01:23.931Z,21.34
2024-05-09T14:03:55.348Z,21.30
2024-05-09T14:06:25.463Z,21.29
2024-05-09T14:08:57.696Z,21.21
2024-05-09T14:11:28.962Z,21.09
2024-05-09T14:14:00.072Z,21.10
2024-05-09T14:16:32.059Z,21.10
2024-05-09T14:19:04.001Z,21.01
2024-05-09T14:21:36.845Z,20.96
2024-05-09T14:24:12.504Z,21.00
2024-05-09T14:26:55.730Z,20.96
2024-05-09T14:29:27.492Z,20.97
2024-05-09T14:31:58.631Z,21.11
2024-05-09T14:34:29.827Z,21.27
2024-05-09T14:37:01.154Z,21.34
2024-05-09T14:39:32.891Z,21.26
2024-05-09T14:42:04.337Z,21.10
2024-05-09T14:44:35.644Z,20.94
2024-05-09T14:47:07.168Z,20.91
2024-05-09T14:49:37.015Z,20.90
2024-05-09T14:52:09.307Z,21.03
2024-05-09T14:54:40.847Z,21.14
2024-05-09T14:57:12.014Z,21.24
2024-05-09T14:59:43.242Z,21.27
2024-05-09T15:02:14.473Z,21.30
2024-05-09T15:04:45.830Z,21.33
2024-05-09T15:07:17.755Z,21.33
2024-05-09T15:09:49.339Z,21.27
2024-05-09T15:12:20.504Z,21.17
2024-05-09T15:14:52.045Z,21.07
2024-05-09T15:17:23.438Z,20.97
2024-05-09T15:19:53.452Z,20.89
2024-05-09T15:22:24.956Z,20.82
2024-05-09T15:24:54.728Z,20.70
2024-05-09T15:27:26.076Z,20.59
2024-05-09T15:29:57.250Z,20.49
2024-05-09T15:32:29.478Z,20.33
2024-05-09T15:35:00.827Z,20.15
2024-05-09T15:37:32.209Z,20.06
2024-05-09T15:42:35.285Z,19.80
2024-05-09T15:45:07.547Z,19.82
2024-05-09T15:47:38.900Z,19.94
2024-05-09T15:50:20.206Z,20.12
2024-05-09T15:52:59.000Z,20.42
2024-05-09T15:55:33.260Z,20.79
2024-05-09T15:58:05.226Z,20.99
2024-05-09T16:00:40.787Z,21.25
2024-05-09T16:03:15.084Z,21.71
2024-05-09T16:05:48.130Z,21.85
2024-05-09T16:08:19.822Z,22.30
2024-05-09T16:10:51.691Z,22.91
2024-05-09T16:13:23.210Z,23.54
2024-05-09T16:15:54.817Z,23.84
2024-05-09T16:18:26.342Z,24.40
2024-05-09T16:21:00.014Z,24.53
2024-05-09T16:23:31.316Z,24.30
2024-05-09T16:26:02.745Z,23.98
2024-05-09T16:28:34.074Z,23.79
2024-05-09T16:31:04.514Z,23.58
2024-05-09T16:33:36.110Z,23.32
2024-05-09T16:36:08.261Z,23.04
2024-05-09T16:38:40.800Z,22.89
2024-05-09T16:41:13.086Z,22.55
2024-05-09T16:43:44.115Z,22.31
2024-05-09T16:46:15.434Z,22.10
2024-05-09T16:48:46.992Z,21.92
2024-05-09T16:51:18.276Z,21.77
2024-05-09T16:53:49.906Z,21.59
2024-05-09T16:56:23.523Z,21.28
2024-05-09T16:58:54.579Z,21.07
2024-05-09T17:01:25.819Z,20.80
2024-05-09T17:03:57.765Z,20.57
2024-05-09T17:06:29.321Z,20.40
2024-05-09T17:09:08.356Z,20.29
2024-05-09T17:11:43.055Z,20.17
2024-05-09T17:14:14.300Z,20.07
2024-05-09T17:16:45.468Z,19.91
2024-05-09T17:19:17.017Z,19.76
2024-05-09T17:21:46.916Z,19.60
2024-05-09T17:24:18.032Z,19.52
2024-05-09T17:26:49.460Z,19.37
2024-05-09T17:29:19.612Z,19.27
2024-05-09T17:31:50.630Z,19.16
2024-05-09T17:34:21.849Z,19.07
2024-05-09T17:36:53.394Z,18.97
2024-05-09T17:39:23.185Z,18.89
2024-05-09T17:41:54.303Z,18.79
2024-05-09T17:44:26.780Z,18.68
2024-05-09T17:46:58.047Z,18.56
2024-05-09T17:49:29.380Z,18.49
2024-05-09T17:52:00.655Z,18.39
2024-05-09T17:54:31.890Z,18.29
2024-05-09T17:57:03.230Z,18.14
2024-05-09T17:59:34.386Z,17.99
2024-05-09T18:02:05.919Z,17.88
2024-05-09T18:04:37.409Z,17.75
2024-05-09T18:07:09.123Z,17.56
2024-05-09T18:09:40.431Z,17.47
2024-05-09T18:12:11.854Z,17.37
2024-05-09T18:14:43.449Z,17.26
2024-05-09T18:17:14.811Z,17.12
2024-05-09T18:19:46.082Z,16.98
2024-05-09T18:22:17.526Z,16.87
2024-05-09T18:24:48.707Z,16.75
2024-05-09T18:27:20.242Z,16.61
2024-05-09T18:29:52.051Z,16.49
2024-05-09T18:32:23.508Z,16.36
2024-05-09T18:34:53.541Z,16.24
2024-05-09T18:37:24.963Z,16.16
2024-05-09T18:39:57.978Z,16.03
2024-05-09T18:42:29.113Z,15.92
2024-05-09T18:45:01.132Z,15.78
2024-05-09T18:47:32.360Z,15.65
2024-05-09T18:50:04.780Z,15.55
2024-05-09T18:52:38.673Z,15.43
2024-05-09T18:55:10.355Z,15.32
2024-05-09T18:57:40.382Z,15.22
2024-05-09T19:00:22.998Z,15.12
2024-05-09T19:03:04.698Z,15.00
2024-05-09T19:05:36.880Z,14.90
2024-05-09T19:08:07.704Z,14.78
2024-05-09T19:10:40.664Z,14.67
2024-05-09T19:13:13.774Z,14.57
2024-05-09T19:15:45.792Z,14.46
2024-05-09T19:18:17.472Z,14.37
2024-05-09T19:20:47.503Z,14.28
2024-05-09T19:23:18.881Z,14.19
2024-05-09T19:25:50.088Z,14.11
2024-05-09T19:28:21.322Z,14.02
2024-05-09T19:30:52.670Z,13.95
2024-05-09T19:33:23.868Z,13.87
2024-05-09T19:35:55.019Z,13.81
2024-05-09T19:38:26.306Z,13.77
2024-05-09T19:40:57.960Z,13.75
2024-05-09T19:43:32.284Z,13.72
2024-05-09T19:46:05.486Z,13.68
2024-05-09T19:48:35.450Z,13.62
2024-05-09T19:51:07.373Z,13.55
2024-05-09T19:53:38.718Z,13.46
2024-05-09T19:56:10.189Z,13.38
2024-05-09T19:58:41.480Z,13.31
2024-05-09T20:01:12.860Z,13.23
2024-05-09T20:03:44.750Z,13.16
2024-05-09T20:06:24.248Z,13.06
2024-05-09T20:08:58.793Z,12.97
2024-05-09T20:11:32.764Z,12.91
2024-05-09T20:14:06.508Z,12.85
2024-05-09T20:16:39.796Z,12.79
2024-05-09T20:19:12.225Z,12.74
2024-05-09T20:21:45.013Z,12.73
2024-05-09T20:24:17.496Z,12.70
2024-05-09T20:26:49.635Z,12.69
2024-05-09T20:29:22.948Z,12.67
2024-05-09T20:31:55.664Z,12.62
2024-05-09T20:34:28.724Z,12.58
2024-05-09T20:37:00.788Z,12.56
2024-05-09T20:39:44.104Z,12.55
2024-05-09T20:42:16.182Z,12.53
2024-05-09T20:44:47.434Z,12.55
2024-05-09T20:47:23.305Z,12.56
2024-05-09T20:49:55.303Z,12.52
2024-05-09T20:52:26.483Z,12.57
2024-05-09T20:54:57.849Z,12.60
2024-05-09T20:57:29.940Z,12.64
2024-05-09T21:00:01.488Z,12.66
2024-05-09T21:02:33.279Z,12.68
2024-05-09T21:05:04.861Z,12.67
2024-05-09T21:07:46.806Z,12.65
2024-05-09T21:10:22.536Z,12.62
2024-05-09T21:12:54.696Z,12.57
2024-05-09T21:15:26.577Z,12.54
2024-05-09T21:17:58.365Z,12.48
2024-05-09T21:20:32.461Z,12.43
2024-05-09T21:23:04.814Z,12.37
2024-05-09T21:25:36.458Z,12.31
2024-05-09T21:28:08.614Z,12.26
2024-05-09T21:30:42.635Z,12.22
2024-05-09T21:33:15.361Z,12.18
2024-05-09T21:35:46.841Z,12.10
2024-05-09T21:38:18.217Z,12.05
2024-05-09T21:40:49.546Z,11.98
2024-05-09T21:43:20.863Z,11.91
2024-05-09T21:45:52.586Z,11.85
2024-05-09T21:48:23.766Z,11.76
2024-05-09T21:50:55.226Z,11.68
2024-05-09T21:53:26.617Z,11.63
2024-05-09T21:55:57.733Z,11.60
2024-05-09T21:58:28.877Z,11.57
2024-05-09T22:01:00.153Z,11.54
2024-05-09T22:03:31.306Z,11.49
2024-05-09T22:06:03.316Z,11.43
2024-05-09T22:08:34.761Z,11.37
2024-05-09T22:11:07.162Z,11.31
2024-05-09T22:13:38.333Z,11.24
2024-05-09T22:16:10.751Z,11.19
2024-05-09T22:18:42.050Z,11.15
2024-05-09T22:21:13.840Z,11.12
2024-05-09T22:23:43.709Z,11.09
2024-05-09T22:26:14.797Z,11.04
2024-05-09T22:28:46.238Z,11.00
2024-05-09T22:31:18.259Z,10.96
2024-05-09T22:33:49.611Z,10.91
2024-05-09T22:36:20.837Z,10.87
2024-05-09T22:38:51.972Z,10.85
2024-05-09T22:41:23.044Z,10.82
2024-05-09T22:43:54.162Z,10.78
2024-05-09T22:46:25.430Z,10.75
2024-05-09T22:48:56.767Z,10.71
2024-05-09T22:51:27.887Z,10.66
2024-05-09T22:53:58.971Z,10.62
2024-05-09T22:56:30.984Z,10.57
2024-05-09T22:59:02.586Z,10.55
2024-05-09T23:01:33.770Z,10.51
2024-05-09T23:04:05.743Z,10.48
2024-05-09T23:06:35.454Z,10.45
2024-05-09T23:09:08.184Z,10.43
2024-05-09T23:11:42.756Z,10.37
2024-05-09T23:14:13.817Z,10.31
2024-05-09T23:16:44.970Z,10.28
2024-05-09T23:19:16.236Z,10.25
2024-05-09T23:21:47.317Z,10.24
2024-05-09T23:24:18.352Z,10.22
2024-05-09T23:26:49.422Z,10.19
2024-05-09T23:29:20.704Z,10.15
2024-05-09T23:31:51.767Z,10.10
2024-05-09T23:34:23.062Z,10.06
2024-05-09T23:36:54.445Z,10.05
2024-05-09T23:39:25.592Z,10.04
2024-05-09T23:41:56.778Z,10.02
2024-05-09T23:44:27.819Z,10.00
2024-05-09T23:46:58.957Z,9.96
2024-05-09T23:49:30.014Z,9.92
2024-05-09T23:52:01.184Z,9.89
2024-05-09T23:54:32.553Z,9.88
2024-05-09T23:57:03.654Z,9.88
2024-05-09T23:59:34.904Z,9.86
